KDRT/DRT METAR and TAF weather

Enter ICAO airport designator
Station Type Date Time Source
KDRT METAR 2022/01/26 15:09 UTC NOAA

KDRT 261509Z AUTO 10011KT 10SM FEW028 OVC039 13/07 A3024 RMK AO2 T01280072


Station Type Date Time Source
KDRT Decoded METAR 2022/01/26 15:09 UTC NOAA

DEL RIO INTERNATIONAL AIRPORT, TX, United States (KDRT) 29-22N 100-55W 313M
Jan 26, 2022 - 10:09 AM EST / 2022.01.26 1509 UTC
Wind: from the E (100 degrees) at 13 MPH (11 KT):0
Visibility: 10 mile(s):0
Sky conditions: overcast
Temperature: 55.0 F (12.8 C)
Dew Point: 45.0 F (7.2 C)
Relative Humidity: 68%
Pressure (altimeter): 30.24 in. Hg (1024 hPa)
ob: KDRT 261509Z AUTO 10011KT 10SM FEW028 OVC039 13/07 A3024 RMK AO2 T01280072
cycle: 15

Station Type Date Time Source
KDRT TAF 2022/01/26 15:12 UTC NOAA

TAF
AMD KDRT 261511Z 2615/2712 10011KT P6SM BKN025 OVC040
FM270100 11005KT P6SM OVC025

Example: see airport list